Tiempo atmosférico en la estación meteorológica de Jaén, Jaén (582 m.)



Fecha
DESCASC
Temp. máxima en grados centígrados (hora)
DESCASC
Temp. mínima en grados centígrados (hora)
DESCASC
Temp. media en grados centígrados
DESCASC
Racha de viento máxima en m/sg (hora)
DESCASC
Velocidad máxima media en intervalos de 10 minutos(hora)
DESCASC
Precipitaciones diarias en mm
DESCASC
Precipitaciones de 00:00 a 06:00 en mm
DESCASC
Precipitaciones de 06:00 a 12:00 en mm
DESCASC
Precipitaciones de 12:00 a 18:00 en mm
DESCASC
Precipitaciones de 18:00 a 24:00 en mm
DESCASC
27-01-2020 11.2 (16:20) 2.9 (08:40) 7 3.33 (13:20) 1.94 (11:50) 0 0 0 0 0
26-01-2020 11.5 (15:40) 5.3 (23:59) 8.4 7.78 (14:00) 4.72 (12:30) 1.4 1.4 0 0 0
25-01-2020 11 (14:10) 7.1 (00:00) 9 13.06 (09:50) 6.11 (09:50) 19.8 0.6 13.4 3.6 2.2
24-01-2020 12.4 (16:00) 6.8 (00:00) 9.6 10.28 (21:10) 4.72 (21:10) 2.8 2 0 0 0.8
23-01-2020 11.8 (15:00) 6.7 (00:00) 9.3 6.67 (09:10) 4.17 (09:40) 0.2 0 0.2 0 0
22-01-2020 12.9 (14:50) 5.8 (00:00) 9.3 11.39 (06:30) 6.39 (06:30) 0.6 0.6 0 0 0
21-01-2020 8 (16:30) 3.3 (00:00) 5.6 7.5 (23:20) 4.17 (23:20) 1.6 0 0.2 0 1.4
20-01-2020 7.6 (16:40) 0.6 (00:00) 4.1 9.72 (02:00) 5.28 (02:20) 3.4 1.4 2 0 0
19-01-2020 12 (00:00) 4 (00:00) 8 12.22 (00:50) 6.67 (00:50) 6.6 0.6 0 3.2 2.8
18-01-2020 13.6 (20:20) 8.5 (00:00) 11.1 14.72 (20:50) 7.22 (23:40) 2 0 1 0 1
17-01-2020 14.4 (14:20) 8.2 (00:00) 11.3 5.83 (15:40) 3.61 (15:40) 0 0 0 0 0
16-01-2020 15.6 (15:20) 7.4 (00:00) 11.5 5 (22:50) 3.33 (04:00) 0 0 0 0 0
15-01-2020 13.6 (15:10) 4.6 (00:00) 9.1 4.17 (02:20) 2.78 (02:10) 0 0 0 0 0
14-01-2020 10.2 (16:20) 3 (00:00) 6.6 6.11 (14:30) 3.61 (13:50) 0 0 0 0 0
13-01-2020 12.2 (14:50) 3.4 (00:00) 7.8 5.56 (02:40) 3.61 (02:40) 0 0 0 0 0
12-01-2020 12.7 (14:40) 3.6 (00:00) 8.1 4.72 (21:20) 3.61 (21:20) 0 0 0 0 0
11-01-2020 12.4 (15:30) 2 (00:00) 7.2 3.61 (00:20) 2.5 (20:40) 0 0 0 0 0
10-01-2020 12 (15:50) 5.6 (00:00) 8.8 7.5 (17:40) 2.5 (21:30) 0 0 0 0 0
09-01-2020 13.7 (15:10) 5.8 (00:00) 9.8 5.83 (16:10) 3.61 (16:10) 0 0 0 0 0
08-01-2020 16.9 (15:20) 6.6 (00:00) 11.7 5.28 (23:50) 3.33 (23:50) 0 0 0 0 0
07-01-2020 14.5 (15:30) 3.7 (00:00) 9.1 4.72 (07:10) 3.33 (03:40) 0 0 0 0 0
06-01-2020 13 (14:00) 3.8 (00:00) 8.4 5.83 (22:00) 3.61 (22:00) 0 0 0 0 0
05-01-2020 12.4 (14:50) 3.6 (00:00) 8 3.33 (00:10) 2.5 (00:10) 0 0 0 0 0
04-01-2020 10.3 (14:50) 5.4 (00:00) 7.9 4.72 (01:10) 2.78 (01:10) 0 0 0 0 0
03-01-2020 12.1 (14:10) 5.5 (00:00) 8.8 3.33 (14:20) 2.22 (14:40) 0 0 0 0 0
02-01-2020 14.8 (14:40) 5.6 (00:00) 10.2 2.5 (04:00) 1.94 (17:50) 0 0 0 0 0
01-01-2020 15.2 (15:00) 5 (00:00) 10.1 2.22 (17:30) 1.67 (02:20) 0 0 0 0 0
31-12-2019 13.6 (14:10) 3.7 (00:00) 8.7 3.61 (14:20) 2.5 (19:10) 0 0 0 0 0
30-12-2019 12.8 (14:10) 5 (00:00) 8.9 3.89 (13:10) 2.5 (13:10) 0 0 0 0 0

Gráficas

Temp. máximas Temp. mínimas Temp. medias Precipitaciones Rachas de viento máximas Velocidades máximas media en intervalos de 10 minutos

Datos horarios

Fecha y hora oficial Temperatura (ºC) Velocidad del viento (km/h) Dirección del viento Racha (km/h) Dirección de racha Precipitación (mm) Presión (hPa) Tendencia (hPa) Humedad (%)
2020-01-28 23:00:00 9.7 0 Calma 9 Sudoeste 0 958.6 0.4 92
2020-01-28 22:00:00 10.3 7 Oeste 12 Norte 0 958.7 0.5 90
2020-01-28 21:00:00 11.4 4 Oeste 21 Sur 0 958.4 0.5 82
2020-01-28 20:00:00 11.6 10 Sur 19 Sur 0 958.2 0.7 83
2020-01-28 19:00:00 11.7 5 Noroeste 10 Noroeste 0 958.2 0.6 87
2020-01-28 18:00:00 12.1 4 Norte 9 Sudeste 0 957.9 0 88
2020-01-28 17:00:00 12 4 Este 12 Este 0 957.5 -0.9 87
2020-01-28 16:00:00 12.7 5 Sudeste 10 Sudeste 0 957.6 -1.2 82
2020-01-28 15:00:00 12.6 2 Sudeste 11 Este 0 957.9 -1.4 82
2020-01-28 14:00:00 12.1 4 Norte 12 Norte 0 958.4 -1 85
2020-01-28 13:00:00 12.7 5 Norte 10 Noroeste 0 958.8 0.2 78
2020-01-28 12:00:00 12.2 6 Este 8 Sudeste 0 959.3 0.7 75
2020-01-28 11:00:00 10.7 2 Norte 5 Norte 0 959.4 1.5 83
2020-01-28 10:00:00 9.9 2 Este 5 Nordeste 0 958.6 0.9 85
2020-01-28 09:00:00 9.3 2 Noroeste 7 Sudoeste 0 958.6 0.9 87
2020-01-28 08:00:00 9 6 Sudoeste 8 Sudoeste 0 957.9 0.3 87
2020-01-28 07:00:00 9 3 Sur 8 Sudoeste 0 957.7 -0.3 86
2020-01-28 06:00:00 9.1 2 Sudoeste 7 Oeste 0 957.7 -0.6 84
2020-01-28 05:00:00 9.1 3 Oeste 8 Oeste 0 957.6 -0.9 85
2020-01-28 04:00:00 9.2 2 Nordeste 9 Sur 0 958 -0.6 81
2020-01-28 03:00:00 8.9 6 Sur 10 Sur 0 958.3 -0.5 82
2020-01-28 02:00:00 8.5 4 Sur 8 Sur 0 958.5 0.1 85
2020-01-28 01:00:00 8.4 3 Sur 12 Sur 0 958.6 0.2 83
2020-01-28 00:00:00 7.7 4 Sudeste 11 Noroeste 0 958.8 0.7 87
2020-01-27 23:00:00 8.3 4 Nordeste 8 Nordeste 0 958.4 0.5 80
2020-01-27 22:00:00 7.8 4 Sur 9 Sur 0 958.4 0.8 82
2020-01-27 21:00:00 7.9 0 Calma 8 Sur 0 958.1 0.7 83
2020-01-27 20:00:00 7.7 4 Sur 6 Sudeste 0 957.9 0.7 77
2020-01-27 19:00:00 8.8 4 Sudoeste 7 Sudoeste 0 957.6 0.5 77
2020-01-27 18:00:00 10.5 2 Norte 7 Norte 0 957.4 -0.1 80
2020-01-27 17:00:00 11 4 Norte 7 Norte 0 957.2 -0.9 75
2020-01-27 16:00:00 10.8 4 Sur 5 Sur 0 957.1 -1.7 76
2020-01-27 15:00:00 10.5 3 Norte 10 Nordeste 0 957.5 -1.8 77
2020-01-27 14:00:00 10 5 Norte 12 Norte 0 958.1 -1 78
2020-01-27 13:00:00 9.5 5 Norte 11 Norte 0 958.8 0.1 77
2020-01-27 12:00:00 8.4 6 Norte 11 Nordeste 0 959.3 0.5 77
2020-01-27 11:00:00 6.7 5 Norte 7 Noroeste 0 959.1 1 83
2020-01-27 10:00:00 5.2 5 Noroeste 10 Este 0 958.7 1.1 93
2020-01-27 09:00:00 3.4 4 Sudeste 7 Oeste 0 958.8 1.2 98
2020-01-27 08:00:00 3.3 2 Sur 5 Sur 0 958.1 0.5 95
2020-01-27 07:00:00 4.6 0 Calma 7 Sur 0 957.6 -0.4 95
2020-01-27 06:00:00 4.5 3 Oeste 6 Sudoeste 0 957.6 -0.7 98
2020-01-27 05:00:00 4.3 5 Sudoeste 7 Sur 0 957.6 -0.8 95
2020-01-27 04:00:00 4.5 4 Sur 9 Oeste 0 958 -0.7 93
2020-01-27 03:00:00 5.3 6 Oeste 11 Oeste 0 958.3 -0.7 88
2020-01-27 02:00:00 4.5 3 Sudoeste 6 Sudoeste 0 958.4 -0.5 89
2020-01-27 01:00:00 4.7 4 Sudoeste 6 Sudoeste 0 958.7 -0.1 88
2020-01-27 00:00:00 5.3 3 Sudoeste 9 Sudoeste 0 959 0.5 87
2020-01-26 23:00:00 5.5 5 Sudoeste 8 Sudoeste 0 958.9 1.1 86
2020-01-26 22:00:00 5.7 3 Sudoeste 7 Sudoeste 0 958.8 1.7 86
2020-01-26 21:00:00 5.9 4 Sudoeste 7 Sur 0 958.5 1.9 82
2020-01-26 20:00:00 6.7 2 Sudoeste 10 Oeste 0 957.8 1.3 76
2020-01-26 19:00:00 8.6 8 Sudoeste 17 Oeste 0 957.1 0.7 61
2020-01-26 18:00:00 8.7 13 Oeste 22 Oeste 0 956.6 0.1 72
2020-01-26 17:00:00 10.4 10 Oeste 22 Noroeste 0 956.5 -0.3 69
2020-01-26 16:00:00 10.8 10 Noroeste 23 Noroeste 0 956.4 -0.8 73
2020-01-26 15:00:00 11.1 12 Noroeste 25 Noroeste 0 956.5 -0.7 76
2020-01-26 14:00:00 10.8 15 Noroeste 28 Norte 0 956.8 0 78
2020-01-26 13:00:00 11 13 Noroeste 25 Noroeste 0 957.2 1.1 72
2020-01-26 12:00:00 10.9 12 Noroeste 20 Noroeste 0 957.2 1.7 75
2020-01-26 11:00:00 9.5 9 Noroeste 17 Noroeste 0 956.8 2.1 83
2020-01-26 10:00:00 7.8 0 Calma 7 Oeste 0 956.1 2.3 99
2020-01-26 09:00:00 6.7 4 Sudoeste 7 Sudeste 0 955.5 2.1 99
2020-01-26 08:00:00 6.8 5 Sur 13 Noroeste 0 954.7 1.5 99
2020-01-26 07:00:00 6.6 5 Noroeste 15 Oeste 0 953.8 1 96
2020-01-26 06:00:00 7.8 9 Oeste 17 Oeste 1 953.4 1 97
2020-01-26 05:00:00 7.6 0 Calma 6 Noroeste 0.2 953.2 0.9 99
2020-01-26 04:00:00 7.6 3 Sur 15 Oeste 0 952.8 0.8 97
2020-01-26 03:00:00 7.8 9 Oeste 16 Noroeste 0 952.4 0.7 97
2020-01-26 02:00:00 7.7 2 Sur 7 Oeste 0 952.3 0.8 98
2020-01-26 01:00:00 7.9 2 Sudeste 10 Sur 0.2 952 0.7 98
2020-01-26 00:00:00 7.8 6 Oeste 13 Noroeste 0 951.7 1.4 98
2020-01-25 23:00:00 7.7 8 Noroeste 21 Noroeste 2 951.5 1.6 98
2020-01-25 22:00:00 8.1 6 Noroeste 11 Noroeste 0 951.3 2 99
2020-01-25 21:00:00 8.1 4 Este 9 Sudeste 0 950.3 1.5 99
2020-01-25 20:00:00 8.1 3 Noroeste 8 Noroeste 0 949.9 1.5 99
2020-01-25 19:00:00 8.3 4 Norte 8 Sudeste 0.2 949.3 0.9 98
2020-01-25 18:00:00 8.6 4 Este 13 Noroeste 0.4 948.8 0.6 98
2020-01-25 17:00:00 8.6 9 Noroeste 15 Noroeste 1.4 948.4 -0.1 97
2020-01-25 16:00:00 9 9 Noroeste 19 Oeste 1.4 948.4 -1.3 93
2020-01-25 15:00:00 10.6 4 Sudoeste 17 Sudeste 0.4 948.2 -2.2 84
2020-01-25 14:00:00 10.7 11 Sudeste 26 Este 0 948.5 -1.7 70
2020-01-25 13:00:00 9.1 14 Sudeste 26 Sudeste 0 949.7 0.3 76
2020-01-25 12:00:00 7.9 17 Sudeste 34 Este 0 950.4 0.6 78
2020-01-25 11:00:00 7.2 12 Sudeste 40 Sudeste 1.2 950.2 1 85
2020-01-25 10:00:00 8.4 13 Sur 47 Sur 4.2 949.4 0.3 77
2020-01-25 09:00:00 7.7 13 Sur 33 Sudeste 2.8 949.8 0.9 88
2020-01-25 08:00:00 8.1 16 Sur 36 Sur 5 949.2 0.1 82
2020-01-25 07:00:00 8.1 5 Sudeste 15 Sudeste 0.2 949.1 -0.6 90
2020-01-25 06:00:00 7.8 5 Sur 8 Sudoeste 0.2 948.9 -1 93
2020-01-25 05:00:00 8 5 Sudeste 8 Sur 0 949.1 -1.1 90
2020-01-25 04:00:00 9 5 Sudeste 32 Sur 0.2 949.7 -0.7 85
2020-01-25 03:00:00 10.8 17 Sur 31 Sudoeste 0 949.9 -0.5 66
2020-01-25 02:00:00 10 6 Sur 31 Sudeste 0 950.2 -0.3 70
2020-01-25 01:00:00 9.7 10 Sur 24 Sur 0.2 950.4 -0.2 75
2020-01-25 00:00:00 9.2 3 Sur 10 Nordeste 0.2 950.4 -0.2 82
2020-01-24 23:00:00 9.1 5 Sur 9 Sur 0 950.5 0.4 79
2020-01-24 22:00:00 9.1 4 Sur 37 Sudoeste 0.6 950.6 0.7 83
2020-01-24 21:00:00 10.4 7 Sudoeste 20 Sur 0 950.6 0.6 62
2020-01-24 20:00:00 10.1 4 Sudoeste 9 Sur 0 950.1 -0.2 77
2020-01-24 19:00:00 10.5 8 Sur 11 Sur 0 949.9 -0.5 74
2020-01-24 18:00:00 11.5 3 Sur 5 Sur 0 950 -0.8 74
2020-01-24 17:00:00 12.2 0 Calma 7 Noroeste 0 950.3 -1 69
2020-01-24 16:00:00 12.4 4 Noroeste 10 Norte 0 950.4 -1.9 69
2020-01-24 15:00:00 11.9 2 Sur 5 Sudeste 0 950.8 -2.1 72
2020-01-24 14:00:00 11.4 0 Calma 9 Norte 0 951.3 -1.6 75
2020-01-24 13:00:00 11.2 2 Oeste 9 Norte 0 952.3 0 79
2020-01-24 12:00:00 11.8 4 Norte 12 Noroeste 0 952.9 0.8 71
2020-01-24 11:00:00 9.9 3 Noroeste 9 Sudeste 0 952.9 1 83
2020-01-24 10:00:00 8.2 3 Noroeste 12 Sur 0 952.3 0.7 87
2020-01-24 09:00:00 7.2 5 Sur 15 Sudeste 0 952.1 0.9 91
2020-01-24 08:00:00 6.9 3 Oeste 8 Sudeste 0 951.9 0.5 92
2020-01-24 07:00:00 7 0 Calma 23 Sudeste 0 951.6 -0.1 92
2020-01-24 06:00:00 7.7 16 Sudeste 24 Sudeste 0.4 951.2 -0.5 83
2020-01-24 05:00:00 7.2 8 Sudeste 14 Sudeste 1.2 951.4 -0.2 95
2020-01-24 04:00:00 7.6 9 Sur 12 Sur 0.4 951.7 0.5 92
2020-01-24 03:00:00 8 3 Nordeste 6 Sur 0 951.7 0.9 88
2020-01-24 02:00:00 8.7 2 Sur 13 Oeste 0 951.6 1 80
2020-01-24 01:00:00 9.2 10 Oeste 21 Oeste 0 951.2 0.6 72
2020-01-24 00:00:00 9.2 4 Noroeste 14 Sur 0 950.8 0.6 72
2020-01-23 23:00:00 8.9 10 Sur 15 Sur 0 950.6 0.6 74
2020-01-23 22:00:00 8.4 3 Sudoeste 7 Sudeste 0 950.6 1 78
2020-01-23 21:00:00 8.9 5 Sur 9 Sur 0 950.2 0.7 76
2020-01-23 20:00:00 8.7 3 Sudeste 11 Sur 0 950 0.6 79
2020-01-23 19:00:00 9 5 Sudeste 10 Sur 0 949.6 0.4 77
2020-01-23 18:00:00 10.2 4 Sur 9 Oeste 0 949.5 0.2 77
2020-01-23 17:00:00 10.9 8 Oeste 18 Oeste 0 949.4 -0.2 71
2020-01-23 16:00:00 11.3 9 Noroeste 16 Noroeste 0 949.2 -0.9 74
2020-01-23 15:00:00 11.7 4 Noroeste 18 Noroeste 0 949.3 -1.5 61
2020-01-23 14:00:00 11.3 7 Noroeste 13 Noroeste 0 949.6 -0.7 71
2020-01-23 13:00:00 11.5 3 Norte 9 Sudeste 0 950.1 0.5 64
2020-01-23 12:00:00 10.8 4 Nordeste 8 Este 0 950.8 1.4 71
2020-01-23 11:00:00 10.2 4 Este 19 Sur 0 950.3 1.4 69
2020-01-23 10:00:00 10.2 8 Sudeste 24 Sudeste 0 949.6 0.7 65
2020-01-23 09:00:00 8 3 Sur 18 Sudeste 0 949.4 0.7 76
2020-01-23 08:00:00 8.2 9 Sudeste 23 Sur 0.2 948.9 0.2 74
2020-01-23 07:00:00 7.1 4 Sur 10 Sur 0 948.9 -0.1 81
2020-01-23 06:00:00 6.7 4 Sur 13 Sur 0 948.7 -0.2 82
2020-01-23 05:00:00 6.7 4 Sudoeste 12 Sudoeste 0 948.7 -0.3 85
2020-01-23 04:00:00 7 3 Sudoeste 13 Este 0 949 -0.3 76
2020-01-23 03:00:00 7.4 8 Sudeste 16 Sur 0 948.9 -0.1 70
2020-01-23 02:00:00 7.2 13 Sur 17 Sur 0 949 0.2 74
2020-01-23 01:00:00 7.3 12 Sur 14 Sur 0 949.3 0.5 76
2020-01-23 00:00:00 7.5 10 Sur 14 Sur 0 949 0.4 76
2020-01-22 23:00:00 8.8 9 Sur 23 Sudeste 0 948.8 0.7 69
2020-01-22 22:00:00 9.1 7 Sudeste 25 Sudeste 0 948.8 1.1 70
2020-01-22 21:00:00 9.6 15 Sudeste 33 Este 0 948.6 1.3 66
2020-01-22 20:00:00 9.7 12 Sudeste 27 Sudeste 0 948.1 1.1 65
2020-01-22 19:00:00 9.9 8 Sudeste 19 Sudeste 0 947.7 0.8 66
2020-01-22 18:00:00 10.4 9 Sudeste 21 Sudeste 0 947.3 0.3 65
2020-01-22 17:00:00 11 10 Sudeste 22 Sudeste 0 947 -0.6 62
2020-01-22 16:00:00 11.4 13 Sudeste 23 Sudeste 0 946.9 -1.5 59
2020-01-22 15:00:00 12.7 14 Sudeste 30 Este 0 947 -1.8 53
2020-01-22 14:00:00 12.4 12 Sudeste 26 Sudeste 0 947.6 -1.1 57
2020-01-22 13:00:00 11.4 16 Sudeste 28 Sudeste 0 948.4 0.1 60
2020-01-22 12:00:00 10.1 12 Sudeste 37 Sudeste 0 948.8 0.9 62
2020-01-22 11:00:00 9.1 10 Sudeste 30 Sudeste 0 948.7 1.4 68
2020-01-22 10:00:00 8.4 13 Sudeste 30 Sudeste 0 948.3 1.6 69
2020-01-22 09:00:00 7.6 13 Sur 30 Sudeste 0 947.9 1.1 71
2020-01-22 08:00:00 7.1 15 Sudeste 31 Sur 0 947.3 0.5 74
2020-01-22 07:00:00 7.1 13 Sudeste 41 Sudeste 0 946.7 -0.2 75
2020-01-22 06:00:00 6.6 9 Sudeste 22 Sudeste 0 946.8 -0.2 79
2020-01-22 05:00:00 7.1 10 Sudeste 21 Sudeste 0 946.8 -0.1 77
2020-01-22 04:00:00 6.6 12 Sur 21 Sur 0 946.9 -0.1 81
2020-01-22 03:00:00 6.7 12 Sudeste 28 Sudeste 0 947 0.1 81
2020-01-22 02:00:00 6.6 18 Sudeste 28 Sudeste 0 946.9 0.4 81
2020-01-22 01:00:00 6.2 13 Sudeste 21 Sudeste 0.6 947 1 84
2020-01-22 00:00:00 5.9 12 Sudeste 27 Sur 1 946.9 1.1 89
2020-01-21 23:00:00 6.5 13 Sudeste 25 Sudeste 0.4 946.5 0.7 85
2020-01-21 22:00:00 7.1 13 Sur 23 Sur 0 946 0.4 76
2020-01-21 21:00:00 6.7 14 Sudeste 21 Sudeste 0 945.8 1.1 80
2020-01-21 20:00:00 6.1 6 Sur 10 Sur 0 945.8 1.4 86
2020-01-21 19:00:00 6.9 3 Sudeste 9 Este 0 945.6 1.8 83
2020-01-21 18:00:00 7.2 6 Este 10 Sudeste 0 944.7 0.9 78
2020-01-21 17:00:00 7.6 6 Este 14 Nordeste 0 944.4 -0.5 75
2020-01-21 16:00:00 7.9 2 Nordeste 10 Norte 0 943.8 -1.8 72
2020-01-21 15:00:00 7.5 4 Este 9 Nordeste 0 943.8 -2.3 72
2020-01-21 14:00:00 7 5 Norte 13 Nordeste 0 944.9 -1.1 73
2020-01-21 13:00:00 6.9 4 Este 9 Noroeste 0 945.6 -0.9 75
2020-01-21 12:00:00 5.3 5 Norte 19 Norte 0 946.1 0.1 81
2020-01-21 11:00:00 4.9 4 Oeste 19 Norte 0 946 -0.2 85
2020-01-21 10:00:00 4.6 7 Norte 19 Norte 0 946.5 0.2 86
2020-01-21 09:00:00 4.7 4 Nordeste 14 Nordeste 0 946 -0.5 85
2020-01-21 08:00:00 4 3 Sudoeste 10 Oeste 0.2 946.2 -0.5 92
2020-01-21 07:00:00 3.8 6 Sudoeste 11 Oeste 0 946.3 -1 87
2020-01-21 06:00:00 3.4 6 Oeste 10 Sudoeste 0 946.5 -1.2 89
2020-01-21 05:00:00 4.2 2 Sudoeste 13 Este 0 946.7 -1.1 83
2020-01-21 04:00:00 4.6 5 Este 13 Este 0 947.3 -1 82
2020-01-21 03:00:00 4.3 5 Sudeste 9 Sudeste 0 947.7 -0.8 86
2020-01-21 02:00:00 4.8 2 Noroeste 5 Sur 0 947.8 -0.6 84
2020-01-21 01:00:00 5.6 0 Calma 11 Este 0 948.3 0.2 80
2020-01-21 00:00:00 5.5 4 Sudeste 8 Este 0 948.5 0.7 81
2020-01-20 23:00:00 5.7 2 Norte 7 Este 0 948.4 0.7 81
2020-01-20 22:00:00 5.8 3 Este 14 Nordeste 0 948.1 0.8 79
2020-01-20 21:00:00 5.8 5 Este 10 Este 0 947.8 1 79
2020-01-20 20:00:00 5.9 4 Norte 12 Nordeste 0 947.7 1.4 79
2020-01-20 19:00:00 7 5 Norte 13 Este 0 947.3 1.1 73
2020-01-20 18:00:00 7.2 5 Este 11 Nordeste 0 946.8 0.3 71
2020-01-20 17:00:00 7.6 8 Este 15 Este 0 946.3 -0.7 69
2020-01-20 16:00:00 7.5 6 Norte 16 Sur 0 946.2 -1.7 70
2020-01-20 15:00:00 6.7 4 Sudeste 13 Sudeste 0 946.5 -2.1 75
2020-01-20 14:00:00 5.8 4 Sur 18 Sudeste 0 947 -2 76
2020-01-20 13:00:00 4.2 7 Sudeste 18 Sudeste 0 947.9 -1.3 80
2020-01-20 12:00:00 3.6 4 Este 13 Sudeste 0 948.6 -0.5 85
2020-01-20 11:00:00 1.2 6 Sudeste 12 Sur 0.4 949 -0.7 89
2020-01-20 10:00:00 0.7 4 Sudeste 17 Sur 1 949.2 -0.8 96
2020-01-20 09:00:00 1 10 Sudeste 16 Sudeste 0.2 949.1 -0.9 94
2020-01-20 08:00:00 0.8 8 Sudeste 22 Este 0.2 949.7 -0.7 93
2020-01-20 07:00:00 1.7 9 Este 23 Este 0.2 950 -1 83
2020-01-20 06:00:00 1.6 10 Sudeste 28 Nordeste 0 950 -1.2 90
2020-01-20 05:00:00 2.1 10 Sudeste 22 Este 0.2 950.4 -0.9 80
2020-01-20 04:00:00 2.4 7 Este 29 Nordeste 0.4 951 -0.6 88
2020-01-20 03:00:00 2.9 10 Este 35 Sudeste 0.6 951.2 -0.3 89
2020-01-20 02:00:00 3.5 18 Este 35 Sudeste 0 951.3 0.2 83
2020-01-20 01:00:00 3.7 8 Este 18 Nordeste 0.2 951.6 0.6 89
2020-01-20 00:00:00 4 8 Sudeste 21 Sudeste 0 951.5 0.5 88
2020-01-19 23:00:00 4.1 8 Este 21 Este 0 951.1 0 88
2020-01-19 22:00:00 4.2 10 Este 26 Nordeste 0 951 0.5 91
2020-01-19 21:00:00 4.2 7 Este 27 Este 0.6 951 0.9 94
2020-01-19 20:00:00 4.7 11 Este 29 Norte 0.6 951.1 1.4 91
2020-01-19 19:00:00 5.6 4 Nordeste 28 Nordeste 1.6 950.5 0.7 92
2020-01-19 18:00:00 6.7 12 Norte 28 Nordeste 0.2 950.1 0.2 82
2020-01-19 17:00:00 7.4 9 Norte 23 Noroeste 0 949.7 -0.8 79
2020-01-19 16:00:00 7.4 12 Noroeste 23 Noroeste 0 949.8 -1 79
2020-01-19 15:00:00 6.9 13 Noroeste 24 Noroeste 0 949.9 -1.8 87
2020-01-19 14:00:00 6.7 15 Noroeste 24 Noroeste 2.8 950.5 -1.2 93
2020-01-19 13:00:00 7.9 13 Noroeste 23 Noroeste 0.2 950.8 -0.6 81
2020-01-19 12:00:00 9.4 10 Noroeste 18 Oeste 0 951.7 0.4 72
2020-01-19 11:00:00 9.1 11 Noroeste 17 Oeste 0 951.7 0.5 74
2020-01-19 10:00:00 8.2 11 Oeste 25 Oeste 0 951.4 0.2 80
2020-01-19 09:00:00 7 18 Oeste 33 Oeste 0 951.3 -0.1 90
2020-01-19 08:00:00 7.5 20 Oeste 30 Oeste 0 951.2 -0.8 88
2020-01-19 07:00:00 7.7 19 Oeste 33 Oeste 0 951.2 -1.7 87
2020-01-19 06:00:00 8.1 17 Oeste 31 Oeste 0 951.4 -1.9 88
2020-01-19 05:00:00 8.6 16 Oeste 32 Oeste 0 952 -1.7 84
2020-01-19 04:00:00 9.3 17 Oeste 41 Noroeste 0 952.9 -1.9 81
2020-01-19 03:00:00 10.1 16 Noroeste 32 Oeste 0 953.3 -1.9 87
2020-01-19 02:00:00 10.8 18 Oeste 42 Oeste 0 953.7 -1 85
2020-01-19 01:00:00 11.1 22 Oeste 44 Oeste 0.6 954.8 -0.6 83
2020-01-19 00:00:00 12 26 Noroeste 47 Noroeste 0 955.2 -1 89
2020-01-18 23:00:00 13.3 18 Oeste 46 Oeste 0 954.7 -1.9 85
2020-01-18 22:00:00 12.1 6 Este 43 Sudoeste 0.6 955.4 -1.5 87
2020-01-18 21:00:00 13.4 22 Oeste 53 Oeste 0.4 956.2 -1.5 89
2020-01-18 20:00:00 13.3 13 Oeste 38 Sudoeste 0 956.6 -2.2 85
2020-01-18 19:00:00 10.5 8 Sudeste 35 Oeste 0 956.9 -2.3 93
2020-01-18 18:00:00 10.6 4 Este 12 Nordeste 0 957.7 -2 90
2020-01-18 17:00:00 11.3 5 Este 13 Sudeste 0 958.8 -1.6 81
2020-01-18 16:00:00 11.8 3 Nordeste 15 Este 0 959.2 -2.5 78
2020-01-18 15:00:00 12.3 6 Nordeste 24 Noroeste 0 959.7 -3.6 72
2020-01-18 14:00:00 12.2 5 Norte 13 Este 0 960.4 -3.1 72
2020-01-18 13:00:00 11.6 4 Sudeste 16 Sur 0 961.7 -1.5 66
2020-01-18 12:00:00 10.7 2 Este 10 Sudoeste 0 963.3 -0.1 76
2020-01-18 11:00:00 9.7 8 Sudoeste 23 Sur 0.4 963.5 1.2 85
2020-01-18 10:00:00 8.9 12 Sur 19 Sur 0.6 963.2 1.6 84
2020-01-18 09:00:00 8.5 5 Sudeste 18 Oeste 0 963.4 1.2 79
2020-01-18 08:00:00 10.1 6 Sudeste 12 Sur 0 962.3 0.1 64
2020-01-18 07:00:00 9.5 5 Sur 11 Sur 0 961.6 -1.1 76
2020-01-18 06:00:00 9.4 4 Sudeste 15 Sudoeste 0 962.2 -0.1 78
2020-01-18 05:00:00 9.9 9 Sur 15 Sur 0 962.2 -0.6 66
2020-01-18 04:00:00 10.1 9 Oeste 21 Oeste 0 962.7 -0.8 72
2020-01-18 03:00:00 9.5 3 Sudeste 9 Sudoeste 0 962.3 -1.7 65
2020-01-18 02:00:00 10.4 9 Sur 23 Sudeste 0 962.8 -1.7 68
2020-01-18 01:00:00 10.9 14 Sur 21 Sudeste 0 963.5 -1.1 65
2020-01-18 00:00:00 9.8 8 Sur 11 Sur 0 964 -0.4 74
2020-01-17 23:00:00 9.9 5 Sur 9 Oeste 0 964.5 0.5 75
2020-01-17 22:00:00 10.3 8 Sudoeste 11 Sudoeste 0 964.6 1.1 71
2020-01-17 21:00:00 9.2 8 Sudoeste 9 Sudoeste 0 964.4 1.2 73
2020-01-17 20:00:00 9.4 5 Sudoeste 9 Sudoeste 0 964 1.3 72
2020-01-17 19:00:00 10.4 8 Sudoeste 11 Sudoeste 0 963.5 0.4 74
2020-01-17 18:00:00 12.1 3 Sudoeste 9 Sur 0 963.2 0 72
2020-01-17 17:00:00 13.4 3 Sudoeste 18 Norte 0 962.7 -0.9 68
2020-01-17 16:00:00 13.6 11 Noroeste 21 Norte 0 963.1 -1.4 64
2020-01-17 15:00:00 13.5 7 Sudeste 15 Sudeste 0 963.2 -1.9 67
2020-01-17 14:00:00 14 4 Sur 14 Noroeste 0 963.6 -1.5 64
2020-01-17 13:00:00 12.5 2 Sudeste 9 Este 0 964.5 0.4 63
2020-01-17 12:00:00 11.7 5 Este 8 Este 0 965.1 1.7 63
2020-01-17 11:00:00 11.4 4 Nordeste 9 Este 0 965.1 2 57
2020-01-17 10:00:00 10.7 0 Calma 7 Sudeste 0 964.1 1.7 58
2020-01-17 09:00:00 9.6 4 Sudeste 9 Sudeste 0 963.4 1.3 59
2020-01-17 08:00:00 9.1 2 Oeste 8 Oeste 0 963.1 1.5 61
2020-01-17 07:00:00 8.6 3 Este 6 Sudeste 0 962.4 0.7 59
2020-01-17 06:00:00 9.4 2 Sudoeste 7 Oeste 0 962.1 0.3 52
2020-01-17 05:00:00 10.3 3 Sudeste 6 Este 0 961.6 -0.3 45
2020-01-17 04:00:00 9.7 2 Oeste 11 Sur 0 961.7 -0.3 47
2020-01-17 03:00:00 9.7 3 Sur 8 Oeste 0 961.8 -0.1 48
2020-01-17 02:00:00 10.3 5 Oeste 12 Sur 0 961.9 0.5 55
2020-01-17 01:00:00 9.2 3 Sur 11 Oeste 0 962 1 60
2020-01-17 00:00:00 11.1 4 Oeste 13 Sudoeste 0 961.9 1.3 54
2020-01-16 23:00:00 12 8 Sudoeste 18 Oeste 0 961.4 1.1 47
2020-01-16 22:00:00 11.3 8 Sudoeste 15 Oeste 0 961 1.1 44
2020-01-16 21:00:00 11.6 9 Sudoeste 17 Sudoeste 0 960.6 1.1 42
2020-01-16 20:00:00 10.5 9 Sur 13 Sudoeste 0 960.3 1 53
2020-01-16 19:00:00 10.5 8 Sur 13 Oeste 0 959.9 0.9 57
2020-01-16 18:00:00 11.2 11 Oeste 15 Oeste 0 959.5 0.4 57
2020-01-16 17:00:00 14 7 Oeste 16 Noroeste 0 959.3 -0.3 45
2020-01-16 16:00:00 15.2 3 Noroeste 9 Noroeste 0 959 -1.2 41
2020-01-16 15:00:00 15.5 4 Norte 9 Nordeste 0 959.1 -1.7 37
2020-01-16 14:00:00 15.3 4 Norte 9 Noroeste 0 959.6 -1.3 39
2020-01-16 13:00:00 14 3 Nordeste 8 Sudeste 0 960.2 0 47
2020-01-16 12:00:00 12.1 3 Norte 4 Norte 0 960.8 0.9 52
2020-01-16 11:00:00 11 3 Noroeste 5 Noroeste 0 960.9 1.3 55
2020-01-16 10:00:00 10.6 0 Calma 6 Este 0 960.2 0.8 50
2020-01-16 09:00:00 8.4 3 Oeste 16 Sur 0 959.9 0.6 48
2020-01-16 08:00:00 8.4 3 Sur 16 Sur 0 959.6 0 50
2020-01-16 07:00:00 7.6 4 Oeste 16 Sur 0 959.4 -0.5 52
2020-01-16 06:00:00 8.3 8 Sur 13 Sur 0 959.3 -0.6 48
2020-01-16 05:00:00 9.6 9 Sur 15 Sur 0 959.6 -0.4 46
2020-01-16 04:00:00 9.5 12 Sur 17 Sur 0 959.9 -0.3 45
2020-01-16 03:00:00 9 6 Sudoeste 14 Sur 0 959.9 -0.5 53
2020-01-16 02:00:00 9.3 9 Sur 14 Sur 0 960 -0.3 52
2020-01-16 01:00:00 7.8 4 Sur 10 Sur 0 960.2 0.2 57
2020-01-16 00:00:00 7.4 3 Sur 7 Oeste 0 960.4 0.6 60
2020-01-15 23:00:00 7.4 4 Sudoeste 6 Sudoeste 0 960.3 0.2 63
2020-01-15 22:00:00 7.9 2 Sur 13 Sur 0 960 0.2 57
2020-01-15 21:00:00 8.5 4 Sudoeste 15 Sur 0 959.8 0.4 62
2020-01-15 20:00:00 8.6 9 Sur 12 Sur 0 960.1 1.1 71
2020-01-15 19:00:00 8.6 8 Sudoeste 9 Sudoeste 0 959.8 1.1 73
2020-01-15 18:00:00 9.6 6 Oeste 8 Oeste 0 959.4 0.8 72
2020-01-15 17:00:00 12.4 3 Oeste 6 Noroeste 0 959 0.1 62
2020-01-15 16:00:00 13.2 3 Noroeste 8 Norte 0 958.7 -0.5 57
2020-01-15 15:00:00 13.5 3 Nordeste 12 Norte 0 958.6 -0.6 55
2020-01-15 14:00:00 12.4 5 Noroeste 9 Norte 0 958.9 0.3 59
2020-01-15 13:00:00 11.6 3 Este 10 Norte 0 959.2 1.3 61
2020-01-15 12:00:00 10.3 6 Norte 9 Nordeste 0 959.2 1.8 65
2020-01-15 11:00:00 10.3 2 Sudeste 7 Norte 0 958.6 1.5 63
2020-01-15 10:00:00 6.8 4 Oeste 7 Sudoeste 0 957.9 1.2 71
2020-01-15 09:00:00 5.3 4 Oeste 9 Oeste 0 957.4 1 76
2020-01-15 08:00:00 5.1 4 Oeste 9 Oeste 0 957.1 0.7 80
2020-01-15 07:00:00 4.9 3 Noroeste 5 Norte 0 956.7 0.2 81
2020-01-15 06:00:00 5.7 3 Sur 14 Sur 0 956.4 -0.3 77
2020-01-15 05:00:00 5.5 6 Sur 9 Sur 0 956.4 -0.6 77
2020-01-15 04:00:00 5.4 5 Oeste 9 Sur 0 956.5 -0.7 78
2020-01-15 03:00:00 6.1 4 Sur 15 Sur 0 956.7 -0.4 74
2020-01-15 02:00:00 6 10 Sur 13 Sur 0 957 0.2 76
2020-01-15 01:00:00 5.1 4 Sudoeste 11 Sur 0 957.2 0.6 80
2020-01-15 00:00:00 4.6 5 Sudoeste 7 Sudoeste 0 957.1 0.7 82
2020-01-14 23:00:00 5.3 4 Sur 8 Oeste 0 956.8 0.5 78
2020-01-14 22:00:00 6 4 Sudoeste 9 Sudoeste 0 956.6 0.4 73
2020-01-14 21:00:00 6.6 6 Sudoeste 15 Sur 0 956.4 0.7 70
2020-01-14 20:00:00 7.5 6 Sur 19 Sur 0 956.3 0.9 72
2020-01-14 19:00:00 6.7 9 Sur 11 Sur 0 956.2 0.8 78
2020-01-14 18:00:00 8.1 4 Sudoeste 7 Sur 0 955.7 0.3 73
2020-01-14 17:00:00 9.4 6 Sur 11 Este 0 955.4 -0.4 67
2020-01-14 16:00:00 10 9 Norte 15 Norte 0 955.4 -1.1 62
2020-01-14 15:00:00 9.8 8 Noroeste 22 Noroeste 0 955.4 -1.4 62
2020-01-14 14:00:00 9.5 13 Norte 20 Norte 0 955.8 -0.7 65
2020-01-14 13:00:00 9.3 8 Norte 12 Norte 0 956.5 0.5 63
2020-01-14 12:00:00 8.2 3 Norte 5 Norte 0 956.8 1.2 68
2020-01-14 11:00:00 7.5 2 Norte 5 Nordeste 0 956.5 0.9 70
2020-01-14 10:00:00 6.3 0 Calma 6 Norte 0 956 0.6 78
2020-01-14 09:00:00 4.1 0 Calma 8 Oeste 0 955.6 0.4 90
2020-01-14 08:00:00 3.2 0 Calma 4 Sur 0 955.6 0.2 91
2020-01-14 07:00:00 3.1 0 Calma 11 Sudoeste 0 955.4 -0.5 89
2020-01-14 06:00:00 4.4 5 Sudoeste 10 Nordeste 0 955.2 -0.8 82
2020-01-14 05:00:00 4 3 Sudoeste 7 Sudoeste 0 955.4 -0.7 84
2020-01-14 04:00:00 4.3 3 Sur 6 Sur 0 955.9 -0.8 81
2020-01-14 03:00:00 4.7 3 Sudoeste 10 Sur 0 956 -1.1 77
2020-01-14 02:00:00 6.1 10 Sur 13 Sur 0 956.1 -1 69
2020-01-14 01:00:00 5.6 7 Sudoeste 12 Sur 0 956.7 -0.3 71
2020-01-14 00:00:00 5.1 8 Sur 12 Sur 0 957.1 0 76
2020-01-13 23:00:00 5.2 3 Sudoeste 10 Sudoeste 0 957.1 -0.3 75
2020-01-13 22:00:00 6 7 Sudoeste 12 Sur 0 957 -0.3 69
2020-01-13 21:00:00 7.1 10 Sur 15 Sudeste 0 957.1 0.1 68
2020-01-13 20:00:00 6.8 8 Sudoeste 9 Oeste 0 957.4 0.7 70
2020-01-13 19:00:00 7.1 7 Sudoeste 12 Sudoeste 0 957.3 0.4 69
2020-01-13 18:00:00 8.7 8 Oeste 10 Oeste 0 957 -0.3 64
2020-01-13 17:00:00 10.5 3 Sur 8 Norte 0 956.7 -1.3 61
2020-01-13 16:00:00 11.4 4 Norte 10 Noroeste 0 956.9 -2 53
2020-01-13 15:00:00 11.9 4 Norte 12 Norte 0 957.3 -2.3 51
2020-01-13 14:00:00 11.7 5 Norte 10 Noroeste 0 958 -1.6 54
2020-01-13 13:00:00 11.2 4 Nordeste 9 Noroeste 0 958.9 0.1 52
2020-01-13 12:00:00 9.7 3 Norte 5 Este 0 959.6 0.9 56
2020-01-13 11:00:00 9.1 2 Este 4 Nordeste 0 959.6 1.1 60
2020-01-13 10:00:00 6.9 0 Calma 4 Este 0 958.8 0.3 66
2020-01-13 09:00:00 4 2 Sudoeste 8 Oeste 0 958.7 0.4 76
2020-01-13 08:00:00 3.8 3 Sudoeste 6 Sudeste 0 958.5 -0.3 74
2020-01-13 07:00:00 3.5 0 Calma 6 Oeste 0 958.5 -0.8 76
2020-01-13 06:00:00 3.8 3 Sudoeste 5 Sudoeste 0 958.3 -1.1 73
2020-01-13 05:00:00 4.4 0 Calma 8 Sur 0 958.8 -0.9 68
2020-01-13 04:00:00 4.5 2 Sur 6 Sudoeste 0 959.3 -1.3 68
2020-01-13 03:00:00 6.1 4 Oeste 20 Sur 0 959.4 -1.5 57
2020-01-13 02:00:00 5.1 4 Sudoeste 6 Sur 0 959.7 -1.2 70
2020-01-13 01:00:00 7 4 Sur 14 Sur 0 960.6 -0.3 62
2020-01-13 00:00:00 7.7 12 Sur 17 Sur 0 960.9 -0.1 59
2020-01-12 23:00:00 7 8 Sur 17 Sur 0 960.9 -0.1 58
2020-01-12 22:00:00 7.6 4 Sur 17 Sur 0 960.9 0.2 51
2020-01-12 21:00:00 8 13 Sur 15 Sur 0 961 0.7 63
2020-01-12 20:00:00 6.4 3 Sur 10 Sur 0 961 0.7 63
2020-01-12 19:00:00 6.8 6 Sur 8 Sudoeste 0 960.7 0.1 69
2020-01-12 18:00:00 7.9 6 Sudoeste 7 Sur 0 960.3 -0.4 68
2020-01-12 17:00:00 9.7 4 Sur 7 Sur 0 960.3 -1.2 62
2020-01-12 16:00:00 11.7 4 Norte 12 Norte 0 960.6 -1.7 52
2020-01-12 15:00:00 12.6 4 Nordeste 9 Norte 0 960.7 -2.5 51
2020-01-12 14:00:00 12 4 Norte 9 Nordeste 0 961.5 -1.7 60
2020-01-12 13:00:00 10.8 3 Nordeste 7 Nordeste 0 962.3 -0.5 64
2020-01-12 12:00:00 10.4 3 Nordeste 5 Nordeste 0 963.2 0.7 63
2020-01-12 11:00:00 10.2 2 Este 4 Este 0 963.2 0.9 65
2020-01-12 10:00:00 8.3 0 Calma 5 Sudoeste 0 962.8 0.8 73
2020-01-12 09:00:00 4.1 0 Calma 4 Sur 0 962.5 0.6 87
2020-01-12 08:00:00 3.8 2 Sur 7 Sur 0 962.3 0.3 84
2020-01-12 07:00:00 3.7 3 Sur 7 Sur 0 962 -0.3 84
2020-01-12 06:00:00 4.4 5 Sur 8 Sur 0 961.9 -0.1 82
2020-01-12 05:00:00 4.4 4 Sur 5 Sur 0 962 0.2 81
2020-01-12 04:00:00 5.3 2 Sudoeste 6 Sur 0 962.3 0.2 77
2020-01-12 03:00:00 5.5 3 Sur 11 Oeste 0 962 -0.2 76
2020-01-12 02:00:00 5.5 3 Sur 6 Sur 0 961.8 -0.4 76
2020-01-12 01:00:00 6.4 4 Oeste 9 Sur 0 962.1 0.1 72
2020-01-12 00:00:00 7.3 2 Noroeste 9 Sur 0 962.2 0.4 68
2020-01-11 23:00:00 7 6 Sur 8 Sur 0 962.2 0.5 69
2020-01-11 22:00:00 8.2 6 Sur 9 Sur 0 962 0.8 64
2020-01-11 21:00:00 8.6 8 Sur 10 Sur 0 961.8 1 63
2020-01-11 20:00:00 8.2 6 Sur 9 Sur 0 961.7 1.1 63
2020-01-11 19:00:00 7.9 4 Sur 7 Sur 0 961.2 0.8 69
2020-01-11 18:00:00 8.6 5 Sudoeste 9 Sudoeste 0 960.8 0.4 68
2020-01-11 17:00:00 10.4 4 Sudoeste 10 Oeste 0 960.6 -0.2 60
2020-01-11 16:00:00 12.4 5 Sudoeste 9 Oeste 0 960.4 -1.3 54
2020-01-11 15:00:00 12.3 4 Norte 10 Nordeste 0 960.4 -2 50
2020-01-11 14:00:00 11.4 4 Nordeste 11 Este 0 960.8 -1.7 53
2020-01-11 13:00:00 9.8 5 Este 9 Nordeste 0 961.7 0 57
2020-01-11 12:00:00 8.7 2 Nordeste 10 Este 0 962.4 1.5 55
2020-01-11 11:00:00 7.9 4 Sudeste 9 Noroeste 0 962.5 2 59
2020-01-11 10:00:00 5.8 4 Oeste 7 Oeste 0 961.7 1.6 66
2020-01-11 09:00:00 2.5 0 Calma 5 Oeste 0 960.9 0.7 81
2020-01-11 08:00:00 2.7 0 Calma 7 Nordeste 0 960.5 0.3 78
2020-01-11 07:00:00 3.2 4 Sur 7 Sudeste 0 960.1 -0.1 75
2020-01-11 06:00:00 3.3 4 Sur 6 Sur 0 960.2 0.2 73
2020-01-11 05:00:00 3.5 4 Oeste 6 Oeste 0 960.2 0.3 73
2020-01-11 04:00:00 4.1 0 Calma 9 Sur 0 960.2 0.3 72
2020-01-11 03:00:00 5.1 5 Sur 9 Sur 0 960 -0.3 66
2020-01-11 02:00:00 6.5 6 Sudeste 12 Sudeste 0 959.9 -0.4 60
2020-01-11 01:00:00 6 3 Sudeste 13 Sur 0 959.9 0.1 63
2020-01-11 00:00:00 5.7 5 Sur 9 Sur 0 960.3 0.7 66
2020-01-10 23:00:00 6.5 5 Sur 9 Sur 0 960.3 1.1 63
2020-01-10 22:00:00 7.5 7 Sur 15 Sudeste 0 959.8 1.3 59
2020-01-10 21:00:00 7.7 6 Sudeste 13 Sudeste 0 959.6 1.9 59
2020-01-10 20:00:00 8.1 4 Sur 11 Norte 0 959.2 2.3 58
2020-01-10 19:00:00 9.3 5 Norte 15 Norte 0 958.5 1.5 53
2020-01-10 18:00:00 10.6 5 Norte 27 Norte 0 957.7 0.4 49
2020-01-10 17:00:00 11.5 8 Este 18 Norte 0 956.9 -0.8 47
2020-01-10 16:00:00 11.9 5 Este 17 Este 0 957 -1.2 54
2020-01-10 15:00:00 11.5 7 Norte 17 Norte 0 957.3 -1.7 62
2020-01-10 14:00:00 11.1 5 Nordeste 14 Noroeste 0 957.7 -1.5 69
2020-01-10 13:00:00 10.3 5 Este 10 Este 0 958.2 -0.4 72
2020-01-10 12:00:00 9.8 4 Nordeste 12 Sur 0 959 1 75
2020-01-10 11:00:00 7.6 2 Norte 5 Sur 0 959.2 1.9 87
2020-01-10 10:00:00 7.8 4 Nordeste 10 Nordeste 0 958.6 1 86
2020-01-10 09:00:00 8.2 4 Noroeste 7 Noroeste 0 958 0.2 87
2020-01-10 08:00:00 7.8 4 Sur 7 Sudoeste 0 957.3 -0.3 86
2020-01-10 07:00:00 7.4 3 Oeste 7 Sudeste 0 957.6 -0.3 86
2020-01-10 06:00:00 7.2 2 Este 5 Oeste 0 957.8 0.1 86
2020-01-10 05:00:00 7.5 4 Noroeste 13 Noroeste 0 957.6 -0.4 85
2020-01-10 04:00:00 8.2 2 Norte 8 Noroeste 0 957.9 -0.1 79
2020-01-10 03:00:00 8.2 3 Oeste 7 Sudeste 0 957.7 -1.4 75
2020-01-10 02:00:00 8.2 3 Sur 8 Sudoeste 0 958 -1.2 76
2020-01-10 01:00:00 7.1 4 Sur 7 Sur 0 958 -0.6 79
2020-01-10 00:00:00 7.1 4 Oeste 15 Oeste 0 959.1 0.6 77
2020-01-09 23:00:00 7.5 12 Oeste 20 Oeste 0 959.2 0.3 80
2020-01-09 22:00:00 7.4 8 Sudoeste 14 Oeste 0 958.6 -0.5 76
2020-01-09 21:00:00 7.5 3 Sur 13 Sur 0 958.5 0.7 77
2020-01-09 20:00:00 8.3 8 Sur 13 Sur 0 958.9 0.8 76
2020-01-09 19:00:00 8.8 6 Sur 13 Sur 0 959.1 0.9 76
2020-01-09 18:00:00 10.1 8 Sudoeste 16 Oeste 0 957.8 -0.6 70
2020-01-09 17:00:00 11.9 12 Noroeste 21 Oeste 0 958.1 -0.9 61
2020-01-09 16:00:00 12.9 12 Noroeste 18 Norte 0 958.2 -1.5 55
2020-01-09 15:00:00 13.5 3 Oeste 10 Sudeste 0 958.4 -2 55
2020-01-09 14:00:00 12.8 5 Nordeste 12 Norte 0 959 -1.1 58
2020-01-09 13:00:00 12.6 4 Este 9 Sudeste 0 959.7 0 58
2020-01-09 12:00:00 11.8 4 Nordeste 9 Nordeste 0 960.4 1.2 59
2020-01-09 11:00:00 11 3 Este 5 Sudeste 0 960.1 1.1 58
2020-01-09 10:00:00 9.2 3 Oeste 5 Sudoeste 0 959.7 0.8 64
2020-01-09 09:00:00 6.8 4 Sudoeste 10 Sudoeste 0 959.2 0.2 70
2020-01-09 08:00:00 5.9 4 Sudoeste 6 Oeste 0 959 -0.1 72
2020-01-09 07:00:00 6 3 Sudoeste 6 Sudoeste 0 958.9 -0.4 68
2020-01-09 06:00:00 6.6 4 Oeste 6 Oeste 0 959 -0.4 62
2020-01-09 05:00:00 7.2 4 Sur 7 Sur 0 959.1 -0.2 57
2020-01-09 04:00:00 7.5 3 Sur 7 Sudoeste 0 959.3 -0.2 55
2020-01-09 03:00:00 8 4 Sudoeste 9 Sudoeste 0 959.4 -0.2 52
2020-01-09 02:00:00 8.6 3 Sudoeste 11 Sur 0 959.3 -0.5 49
2020-01-09 01:00:00 9.3 3 Sudoeste 11 Oeste 0 959.5 -0.3 46
2020-01-09 00:00:00 11.8 10 Sur 19 Sur 0 959.6 0.3 36
2020-01-08 23:00:00 10 5 Sur 8 Sudeste 0 959.8 0.7 43
2020-01-08 22:00:00 9.9 3 Sur 5 Sur 0 959.8 0.7 44
2020-01-08 21:00:00 11.7 0 Calma 11 Sur 0 959.3 0.2 40
2020-01-08 20:00:00 12.9 10 Sur 14 Sur 0 959.1 0.1 33
2020-01-08 19:00:00 12.9 8 Sur 13 Sur 0 959.1 0.2 26
2020-01-08 18:00:00 13.3 7 Sur 12 Sur 0 959.1 -0.1 25
2020-01-08 17:00:00 13.5 5 Sur 6 Sur 0 959 -0.5 28
2020-01-08 16:00:00 15.7 3 Sudoeste 5 Sur 0 958.9 -1.3 28
2020-01-08 15:00:00 16.5 2 Sudoeste 7 Norte 0 959.2 -1.7 25
2020-01-08 14:00:00 14.8 3 Nordeste 7 Norte 0 959.5 -1.7 35
2020-01-08 13:00:00 13.7 2 Norte 7 Norte 0 960.2 -0.5 44
2020-01-08 12:00:00 11.1 4 Noroeste 7 Norte 0 960.9 0.8 50
2020-01-08 11:00:00 11.9 4 Norte 15 Sur 0 961.2 1 45
2020-01-08 10:00:00 7.5 2 Sur 13 Sur 0 960.7 0.4 58
2020-01-08 09:00:00 12.3 9 Sudeste 16 Sudeste 0 960.1 -0.3 32
2020-01-08 08:00:00 10.7 6 Sudeste 14 Sur 0 960.2 -0.3 39
2020-01-08 07:00:00 9.5 10 Sur 14 Sur 0 960.3 -0.2 46
2020-01-08 06:00:00 7.1 3 Sudeste 5 Sur 0 960.4 -0.3 53
2020-01-08 05:00:00 7.3 3 Sudeste 7 Oeste 0 960.5 -0.4 54
2020-01-08 04:00:00 8.1 3 Sur 8 Sur 0 960.5 -0.7 49
2020-01-08 03:00:00 7.8 0 Calma 7 Sur 0 960.7 -0.9 54
2020-01-08 02:00:00 7.6 3 Sur 5 Sur 0 960.9 -0.7 63
2020-01-08 01:00:00 7.8 3 Sur 7 Sudoeste 0 961.2 -0.5 60
2020-01-08 00:00:00 8.3 5 Sudoeste 6 Sudoeste 0 961.6 -0.1 60
2020-01-07 23:00:00 9 0 Calma 9 Oeste 0 961.6 -0.1 52
2020-01-07 22:00:00 10.1 3 Noroeste 9 Oeste 0 961.7 0 48
2020-01-07 21:00:00 10.5 5 Sur 8 Sur 0 961.7 0.4 43
2020-01-07 20:00:00 9.7 3 Sudoeste 6 Sur 0 961.7 0.7 46
2020-01-07 19:00:00 9.8 4 Sudoeste 9 Sur 0 961.7 0.6 66
2020-01-07 18:00:00 10.4 3 Sudoeste 7 Sudoeste 0 961.3 0.1 59
2020-01-07 17:00:00 12.2 3 Sur 5 Sur 0 961 -0.7 65
2020-01-07 16:00:00 14.1 3 Nordeste 6 Este 0 961.1 -1.3 60
2020-01-07 15:00:00 13.9 3 Norte 6 Norte 0 961.2 -1.5 54
2020-01-07 14:00:00 13 4 Nordeste 7 Nordeste 0 961.7 -0.9 56
2020-01-07 13:00:00 11.7 2 Nordeste 9 Nordeste 0 962.4 -0.6 58
2020-01-07 12:00:00 12 5 Oeste 12 Norte 0 962.7 0.6 54
2020-01-07 11:00:00 11.9 2 Oeste 6 Sur 0 962.6 1.1 53
2020-01-07 10:00:00 7.7 4 Oeste 8 Oeste 0 963 1.6 62
2020-01-07 09:00:00 3.9 3 Oeste 9 Norte 0 962.1 0.3 74
2020-01-07 08:00:00 6.1 5 Noroeste 17 Sur 0 961.5 -0.4 69
2020-01-07 07:00:00 5.8 4 Sur 9 Sur 0 961.4 -0.2 77
2020-01-07 06:00:00 5.4 3 Nordeste 9 Nordeste 0 961.8 0.1 75
2020-01-07 05:00:00 8.2 7 Sudeste 16 Sudeste 0 961.9 0 63
2020-01-07 04:00:00 9.7 8 Sudeste 15 Sur 0 961.6 -0.2 56
2020-01-07 03:00:00 8.1 9 Sudeste 14 Sur 0 961.7 -0.3 66
2020-01-07 02:00:00 6.4 3 Sur 9 Oeste 0 961.9 0.1 72
2020-01-07 01:00:00 6.5 3 Sur 7 Sur 0 961.8 0.8 71
2020-01-07 00:00:00 7 4 Sudoeste 9 Sur 0 962 1.1 75
2020-01-06 23:00:00 8.1 0 Calma 17 Sur 0 961.8 1.1 68
2020-01-06 22:00:00 10 13 Sur 21 Sur 0 961 0.4 58
2020-01-06 21:00:00 11.5 8 Sudeste 17 Sudeste 0 960.9 0.9 57
2020-01-06 20:00:00 7.3 3 Sudoeste 10 Sur 0 960.7 1.1 74
2020-01-06 19:00:00 7.2 4 Sur 6 Sudoeste 0 960.6 1.1 80
2020-01-06 18:00:00 8.8 3 Sudoeste 8 Sudoeste 0 960 0.4 77
2020-01-06 17:00:00 10.7 5 Sur 8 Sur 0 959.6 -0.5 70
2020-01-06 16:00:00 12.4 3 Nordeste 11 Norte 0 959.5 -1.2 65
2020-01-06 15:00:00 12.5 5 Norte 11 Este 0 959.6 -1.5 66
2020-01-06 14:00:00 12.9 6 Nordeste 14 Nordeste 0 960.1 -1.2 65
2020-01-06 13:00:00 11 3 Norte 7 Norte 0 960.7 -0.1 65
2020-01-06 12:00:00 10 2 Este 7 Sudeste 0 961.1 0.9 65
2020-01-06 11:00:00 8.6 3 Sudeste 6 Nordeste 0 961.3 1.5 70
2020-01-06 10:00:00 6.6 3 Oeste 5 Oeste 0 960.8 1.5 70